Boston, NY (14025)

10:45 AM EDT on June 03, 2015 (GMT -0400)
East Hill | | Change Station
CLOSE
Current Station
Personal Weather Station
Location: Colden, NY
Elevation: 1594 ft
Nearby Weather Stations

Elev 1594 ft 42.65 °N, 78.70 °W | Updated 3 minutes ago

Clear
Clear
61.8 °F
Feels Like 61.8 °F
N
8.0
Wind Variable Wind from East
Gusts 18.0 mph

Today
High -- | Low -- °F
--% Chance of Precip.
Yesterday
High -- | Low -- °F
Precip. -- in
5:38 AM 8:47 PM
Full, 99% visible
Pressure 30.22 in
Visibility 10.0 miles
Clouds Few 3000 ft
Few 22000 ft
Few 27000 ft
Dew Point 48 °F
Humidity 61%
Rainfall 0.00 in
Snow Depth Not available.
UV 6.2 out of 12
Pollen 9.10 out of 12
Air Quality Not available.
Flu Activity Sporadic
METAR KBUF 031354Z 12007KT 10SM FEW030 FEW220 FEW270 15/07 A3022 RMK AO2 SLP234 T01500072

More Conditions Fewer Conditions

Pressure 30.22 in
Visibility 10.0 miles
Clouds Few 3000 ft
Few 22000 ft
Few 27000 ft
Dew Point 48 °F
Humidity 61%
Rainfall 0.00 in
Snow Depth Not available.
UV 6.2 out of 12
Pollen 9.10 out of 12
Air Quality Not available.
Flu Activity Sporadic
METAR KBUF 031354Z 12007KT 10SM FEW030 FEW220 FEW270 15/07 A3022 RMK AO2 SLP234 T01500072

More Conditions Fewer Conditions

10-Day Weather Forecast

×

Almanac

Astronomy

Jun. 03, 2015 Rise Set
Actual Time
Civil Twilight
Nautical Twilight
Astronomical Twilight
Moon
Length of Visible Light
Length of Day
Tomorrow will be .
, % of the Moon is Illuminated

Today's Extremes

State Highs State Lows

Community

WunderPhotos

Upload Photos

1,826,230 photos uploaded!

WunderBlogs® & News

Nearby

Air Quality

  Air Quality AQ Index Pollutant
Not available.

Snow Depth

Station Depth Elevation

Earthquake Activity

City Distance Mag. Time & Date
Minimum magnitude displayed is 2.5.

Coastal Water Temperatures

Place Temperature

Stations

Nearby Weather Stations

Station Location Temp. Windchill Dew Point Humidity Wind Precip. Elev Updated Type